Nenana Municipal Airport
PANN : now visible

Airfield :











YOU CAN JOIN US ON...

 
LOGIN :

Register | Disclaimer

   EN    FR    IT 

 









Legend :    VFR   Marginal VFR   IFR   Intensive IFR   Very Intensive IFR
Visi :
Ceiling :
>= 8 km
>= 3000ft
5 to 8 km
1000 to 3000 ft
1500m to 5 km
500 to 1000 ft
800 to 1500m
200 to 500 ft
< 800m
< 200 ft
Symbols :   Thunderstorms  Fog  Heavy snow  Heavy precipitations  Wind > 20 kt






- Airport Elevation : 362 ft
- IATA code : ENN


PANN - Nenana Municipal

CURRENT METAR :
  • 062218Z AUTO 24011G18KT 1 3/4SM UP BKN028 OVC038 M08/M14 A2983 RMK AO2 VIS 1 1/4V2 1/2 UPB16SNE16 P0000 T10831144 TSNO

EXPIRED METARs :
  • 062214Z AUTO 24009G18KT 210V270 2SM -SN BKN030 BKN038 OVC047 M08/M14 A2983 RMK AO2 VIS 1 1/4V5 P0000 T10831144 TSNO
  • 062153Z AUTO 26008KT 1 1/4SM -SN BKN020 BKN025 OVC031 M08/M13 A2982 RMK AO2 UPB02E22SNE02B22 SLP111 P0001 T10831133 TSNO
  • 062125Z AUTO 25008G19KT 3/4SM -SN BKN023 BKN027 OVC048 M09/M14 A2982 RMK AO2 UPB02E22SNE02B22 P0000 T10891139 TSNO
  • 062110Z AUTO 26011G21KT 4SM UP FEW024 BKN034 OVC048 M08/M16 A2981 RMK AO2 UPB02SNE02 P0000 T10831156 TSNO
  • 062100Z AUTO VRB06KT 3SM -SN BKN024 BKN033 OVC048 M08/M14 A2981 RMK AO2 P0000 T10831139 TSNO
  • 062050Z AUTO 28012G23KT 3/4SM -SN BKN024 BKN033 OVC041 M08/M13 A2981 RMK AO2 UPE42SNB42 SLP105 P0000 60000 T10831133 53022 TSNO
  • 062035Z AUTO 26014G23KT 2SM UP BKN036 BKN042 OVC049 M08/M16 A2980 RMK AO2 VIS 3/4V5 P0000 T10781156 TSNO
  • 061953Z AUTO 24008KT 200V270 8SM UP SCT042 BKN055 OVC080 M08/M14 A2978 RMK AO2 UPB03SNE03B38E49 SLP096 P0000 T10831144 TSNO

TAF N/A



MET'MAP, your aeronautical weather chart ! - Copyright ORBIFLY December 2007 - Disclaimer

ORBIFLY MET'MAP TEAM :

Programming & Development : Alexandra Zaïnal
Concept & original design : Baudouin d'Aumeries
Assistance for programming : Marc-Olivier Méhu
Technical & hardware support : Manuel Goepfert

Contact : metmap@orbifly.com




SOURCES & CREDITS :

   NOAA       Earth
Advisory